Time;durP1;ratioP1;P1;durP2;ratioP2;P2;SDS_P1;SDS_P2;PMS_P1;PMS_P2;Temp;Humidity;BMP_temperature;BMP_pressure;BME280_temperature;BME280_humidity;BME280_pressure;Samples;Min_cycle;Max_cycle;Signal;HPM_P1;HPM_P2
2023/02/20 00:01:40;;;;;;;16.40;9.05;;;;;;;4.14;100.00;102408.19;5132307;27;20039;-53
2023/02/20 00:04:08;;;;;;;17.63;9.65;;;;;;;4.10;100.00;102396.94;5133209;27;20092;-53
2023/02/20 00:06:36;;;;;;;17.38;9.70;;;;;;;4.14;100.00;102398.63;5133392;27;20055;-50
2023/02/20 00:09:06;;;;;;;16.73;10.32;;;;;;;4.13;100.00;102389.13;5135614;27;20074;-60
2023/02/20 00:11:34;;;;;;;18.05;9.65;;;;;;;4.21;100.00;102386.38;5135538;27;20047;-60
2023/02/20 00:14:02;;;;;;;19.17;9.98;;;;;;;4.25;100.00;102375.03;5137074;27;20054;-60
2023/02/20 00:16:30;;;;;;;17.67;10.07;;;;;;;4.30;100.00;102375.84;5136765;27;20178;-60
2023/02/20 00:18:58;;;;;;;18.25;9.95;;;;;;;4.33;100.00;102378.41;5136335;27;20058;-60
2023/02/20 00:21:29;;;;;;;17.58;10.68;;;;;;;4.32;100.00;102373.22;5135294;27;20561;-60
2023/02/20 00:23:57;;;;;;;19.70;11.77;;;;;;;4.28;100.00;102361.13;5134162;27;20521;-60
2023/02/20 00:26:26;;;;;;;21.15;10.93;;;;;;;4.28;100.00;102359.41;5135707;27;20460;-60
2023/02/20 00:28:54;;;;;;;19.40;10.98;;;;;;;4.31;100.00;102353.25;5137163;27;20039;-60
2023/02/20 00:31:23;;;;;;;19.17;10.55;;;;;;;4.31;100.00;102358.47;5136717;27;20039;-60
2023/02/20 00:33:51;;;;;;;19.27;10.90;;;;;;;4.32;100.00;102350.66;5135673;27;20100;-60
2023/02/20 00:36:20;;;;;;;19.73;11.30;;;;;;;4.39;100.00;102349.66;5134992;27;20108;-60
2023/02/20 00:38:48;;;;;;;18.15;11.52;;;;;;;4.37;100.00;102345.38;5135225;27;20435;-60
2023/02/20 00:41:20;;;;;;;19.63;11.60;;;;;;;4.40;100.00;102332.28;5135187;27;20047;-60
2023/02/20 00:43:50;;;;;;;19.38;11.82;;;;;;;4.40;100.00;102340.97;5135036;27;20043;-60
2023/02/20 00:46:18;;;;;;;19.42;11.43;;;;;;;4.39;100.00;102334.03;5134875;27;20073;-60
2023/02/20 00:48:46;;;;;;;23.40;11.52;;;;;;;4.42;100.00;102337.47;5134571;27;20074;-60
2023/02/20 00:51:16;;;;;;;20.00;11.55;;;;;;;4.41;100.00;102331.41;5136167;27;20071;-60
2023/02/20 00:53:45;;;;;;;21.73;11.68;;;;;;;4.40;100.00;102322.75;5134991;27;20547;-60
2023/02/20 00:56:13;;;;;;;17.95;11.02;;;;;;;4.47;100.00;102314.81;5135402;27;20490;-60
2023/02/20 00:58:41;;;;;;;19.15;10.65;;;;;;;4.51;100.00;102322.56;5134432;27;20040;-60
2023/02/20 01:01:11;;;;;;;19.48;11.25;;;;;;;4.49;100.00;102324.31;5134508;27;20385;-60
2023/02/20 01:03:39;;;;;;;21.27;10.50;;;;;;;4.50;100.00;102309.53;5134956;27;20051;-60
2023/02/20 01:06:07;;;;;;;23.00;11.05;;;;;;;4.49;100.00;102313.91;5136153;27;20084;-60
2023/02/20 01:08:37;;;;;;;17.10;10.45;;;;;;;4.49;100.00;102300.88;5135900;27;20126;-60
2023/02/20 01:11:05;;;;;;;18.48;10.63;;;;;;;4.56;100.00;102296.44;5134678;27;20074;-60
2023/02/20 01:13:33;;;;;;;19.38;11.25;;;;;;;4.50;100.00;102288.69;5134105;27;20047;-60
2023/02/20 01:16:01;;;;;;;17.17;10.35;;;;;;;4.54;100.00;102304.28;5133932;27;20051;-60
2023/02/20 01:18:31;;;;;;;18.83;10.20;;;;;;;4.53;100.00;102293.88;5134525;27;20542;-60
2023/02/20 01:20:59;;;;;;;21.00;10.38;;;;;;;4.53;100.00;102296.47;5135748;27;20055;-60
2023/02/20 01:23:27;;;;;;;17.75;10.23;;;;;;;4.52;100.00;102282.56;5135683;27;20573;-60
2023/02/20 01:25:55;;;;;;;18.30;10.45;;;;;;;4.55;100.00;102287.75;5135598;27;20054;-60
2023/02/20 01:28:24;;;;;;;18.23;11.00;;;;;;;4.51;100.00;102286.09;5135555;27;20043;-60
2023/02/20 01:30:52;;;;;;;17.13;10.10;;;;;;;4.49;100.00;102269.59;5133797;27;20050;-60
2023/02/20 01:33:20;;;;;;;19.90;10.63;;;;;;;4.50;100.00;102263.53;5134602;27;20405;-60
2023/02/20 01:35:49;;;;;;;18.42;10.13;;;;;;;4.46;100.00;102247.94;5135202;27;20047;-60
2023/02/20 01:38:17;;;;;;;19.98;10.52;;;;;;;4.43;100.00;102240.19;5134372;27;20049;-60
2023/02/20 01:40:47;;;;;;;17.75;10.88;;;;;;;4.42;100.00;102241.06;5133213;27;20047;-60
2023/02/20 01:43:16;;;;;;;20.98;10.20;;;;;;;4.40;100.00;102233.28;5133740;27;20051;-60
2023/02/20 01:45:45;;;;;;;18.00;9.68;;;;;;;4.40;100.00;102238.50;5133428;27;20057;-60
2023/02/20 01:48:20;;;;;;;20.98;10.52;;;;;;;4.42;100.00;102230.66;5133839;27;20050;-60
2023/02/20 01:50:53;;;;;;;17.00;9.80;;;;;;;4.42;100.00;102225.44;5133999;27;20055;-60
2023/02/20 01:53:25;;;;;;;18.58;10.07;;;;;;;4.40;100.00;102220.25;5134888;27;20100;-60
2023/02/20 01:55:57;;;;;;;22.08;9.68;;;;;;;4.46;100.00;102214.97;5134667;27;20516;-60
2023/02/20 01:58:28;;;;;;;;;;;;;;;4.44;100.00;102223.69;5135524;27;20043;-60
2023/02/20 02:00:58;;;;;;;19.52;10.00;;;;;;;4.39;100.00;102219.41;5133923;27;19920;-60
2023/02/20 02:03:31;;;;;;;20.92;11.00;;;;;;;4.37;100.00;102231.59;5133644;27;20053;-60
2023/02/20 02:06:03;;;;;;;16.55;9.82;;;;;;;4.38;100.00;102227.25;5133705;27;20559;-60
2023/02/20 02:08:33;;;;;;;22.98;9.88;;;;;;;4.32;100.00;102223.03;5133395;27;20058;-60
2023/02/20 02:11:03;;;;;;;19.48;10.35;;;;;;;4.33;100.00;102214.28;5133986;27;20043;-60
2023/02/20 02:13:32;;;;;;;18.98;10.25;;;;;;;4.36;100.00;102213.38;5135020;27;20516;-60
2023/02/20 02:16:11;;;;;;;17.00;9.77;;;;;;;4.35;100.00;102217.75;5133349;27;20108;-60
2023/02/20 02:18:56;;;;;;;18.77;10.43;;;;;;;4.34;100.00;102208.22;5133481;27;20429;-60
2023/02/20 02:22:03;;;;;;;19.73;11.80;;;;;;;4.29;100.00;102210.03;5133217;27;20070;-60
2023/02/20 02:25:12;;;;;;;19.83;10.18;;;;;;;4.31;100.00;102204.78;5130658;27;20112;-60
2023/02/20 02:28:18;;;;;;;17.95;9.75;;;;;;;4.30;100.00;102192.66;5134030;27;20120;-60
2023/02/20 02:31:18;;;;;;;19.85;10.73;;;;;;;4.29;100.00;102186.59;5133201;27;20047;-60
2023/02/20 02:34:12;;;;;;;19.58;10.90;;;;;;;4.27;100.00;102187.50;5108635;27;20084;-60
2023/02/20 02:36:56;;;;;;;24.92;11.52;;;;;;;4.26;100.00;102188.41;5133005;27;20542;-60
2023/02/20 02:39:35;;;;;;;20.75;11.02;;;;;;;4.25;100.00;102177.09;5133091;27;20096;-60
2023/02/20 02:42:11;;;;;;;20.55;10.73;;;;;;;4.28;100.00;102179.69;5132992;27;20549;-60
2023/02/20 02:44:44;;;;;;;20.00;11.85;;;;;;;4.32;100.00;102183.94;5133143;27;20489;-60
2023/02/20 02:47:19;;;;;;;21.00;11.35;;;;;;;4.33;100.00;102184.78;5132779;27;20043;-60
2023/02/20 02:49:55;;;;;;;23.73;12.57;;;;;;;4.36;100.00;102180.41;5132773;27;20039;-60
2023/02/20 02:52:45;;;;;;;24.73;12.25;;;;;;;4.37;100.00;102189.06;5133449;27;20108;-60
2023/02/20 02:55:15;;;;;;;24.25;11.93;;;;;;;4.39;100.00;102182.06;5132046;27;20413;-50
2023/02/20 02:57:43;;;;;;;21.67;12.80;;;;;;;4.51;100.00;102170.56;5127558;27;20046;-52
2023/02/20 03:00:16;;;;;;;25.13;12.40;;;;;;;4.50;100.00;102164.50;5130203;27;20138;-50
2023/02/20 03:02:50;;;;;;;24.42;13.55;;;;;;;4.54;100.00;102168.78;5129711;27;20055;-52
2023/02/20 03:05:21;;;;;;;23.00;13.35;;;;;;;4.57;100.00;102154.84;5129520;27;20051;-51
2023/02/20 03:07:55;;;;;;;27.88;15.27;;;;;;;4.55;100.00;102161.81;5129138;28;20123;-52
2023/02/20 03:10:30;;;;;;;27.58;15.55;;;;;;;4.56;100.00;102153.97;5128818;28;20043;-54
2023/02/20 03:13:04;;;;;;;32.65;16.42;;;;;;;4.56;100.00;102148.75;5128921;27;20486;-53
2023/02/20 03:15:36;;;;;;;34.75;16.38;;;;;;;4.67;100.00;102155.50;5131178;28;20535;-52
2023/02/20 03:18:19;;;;;;;32.67;16.75;;;;;;;4.65;100.00;102158.16;5129774;27;20574;-52
2023/02/20 03:20:51;;;;;;;32.13;16.80;;;;;;;4.71;100.00;102151.97;5129294;28;20043;-53
2023/02/20 03:23:26;;;;;;;28.52;15.50;;;;;;;4.73;100.00;102158.84;5133418;27;20047;-51
2023/02/20 03:25:57;;;;;;;31.42;15.73;;;;;;;4.78;100.00;102157.91;5133315;27;20398;-51
2023/02/20 03:28:32;;;;;;;34.95;17.42;;;;;;;4.81;100.00;102156.06;5133322;28;20043;-53
2023/02/20 03:31:03;;;;;;;37.75;19.60;;;;;;;4.75;100.00;102158.81;5133181;28;20043;-51
2023/02/20 03:45:01;;;;;;;40.63;22.38;;;;;;;4.82;100.00;102126.53;5129780;27;20075;-53
2023/02/20 03:47:30;;;;;;;42.33;22.50;;;;;;;4.85;100.00;102129.09;5133313;28;20051;-60
2023/02/20 03:50:01;;;;;;;43.30;22.95;;;;;;;4.85;100.00;102139.53;5132215;28;20498;-60
2023/02/20 03:52:30;;;;;;;40.88;22.52;;;;;;;4.89;100.00;102133.34;5131753;28;20051;-60
2023/02/20 03:54:59;;;;;;;42.25;23.13;;;;;;;4.92;100.00;102140.22;5131764;28;20051;-60
2023/02/20 03:57:33;;;;;;;42.83;24.42;;;;;;;4.91;100.00;102141.97;5131353;27;20374;-60
2023/02/20 04:00:05;;;;;;;45.20;24.58;;;;;;;4.92;100.00;102132.41;5131803;28;20121;-60
2023/02/20 04:02:38;;;;;;;42.10;25.10;;;;;;;4.92;100.00;102127.19;5132835;28;20055;-60
2023/02/20 04:05:13;;;;;;;43.90;24.15;;;;;;;4.90;100.00;102127.22;5131428;27;20054;-60
2023/02/20 04:07:45;;;;;;;45.55;24.60;;;;;;;4.93;100.00;102131.50;5131208;28;20490;-60
2023/02/20 04:10:20;;;;;;;47.15;25.35;;;;;;;5.00;100.00;102125.28;5130789;27;20040;-60
2023/02/20 04:12:50;;;;;;;46.00;25.45;;;;;;;4.97;100.00;102125.34;5130804;28;20039;-60
2023/02/20 04:15:20;;;;;;;49.03;27.10;;;;;;;4.96;100.00;102121.00;5133420;27;20051;-60
2023/02/20 04:17:51;;;;;;;45.22;26.42;;;;;;;5.01;100.00;102121.78;5134725;27;20050;-60
2023/02/20 04:20:19;;;;;;;44.28;26.63;;;;;;;5.06;100.00;102124.31;5135962;27;20047;-60
2023/02/20 04:22:50;;;;;;;51.78;27.88;;;;;;;5.05;100.00;102123.44;5134226;27;20071;-60
2023/02/20 04:25:33;;;;;;;50.03;27.20;;;;;;;5.05;100.00;102120.81;5133281;27;20051;-60
2023/02/20 04:28:01;;;;;;;51.53;26.95;;;;;;;5.09;100.00;102119.03;5136896;27;20039;-60
2023/02/20 04:30:29;;;;;;;48.15;26.38;;;;;;;5.16;100.00;102112.75;5136810;27;20377;-60
2023/02/20 04:32:58;;;;;;;47.65;28.85;;;;;;;5.18;100.00;102111.00;5136472;27;20046;-61
2023/02/20 04:35:26;;;;;;;52.08;28.25;;;;;;;5.18;100.00;102105.78;5135057;27;20102;-61
2023/02/20 04:37:54;;;;;;;49.08;27.40;;;;;;;5.21;100.00;102105.72;5133781;27;20055;-60
2023/02/20 04:40:24;;;;;;;53.30;28.73;;;;;;;5.27;100.00;102106.47;5133198;27;20043;-60
2023/02/20 04:42:52;;;;;;;52.03;28.60;;;;;;;5.27;100.00;102099.47;5134413;27;20054;-61
2023/02/20 04:45:23;;;;;;;53.33;29.02;;;;;;;5.29;100.00;102092.50;5135810;27;20043;-60
2023/02/20 04:47:51;;;;;;;54.60;28.20;;;;;;;5.33;100.00;102101.09;5135853;27;20045;-60
2023/02/20 04:50:23;;;;;;;53.60;30.40;;;;;;;5.36;100.00;102098.44;5136161;27;20554;-61
2023/02/20 04:52:52;;;;;;;58.53;29.63;;;;;;;5.37;100.00;102100.13;5133547;27;20047;-61
2023/02/20 04:55:20;;;;;;;51.33;27.90;;;;;;;5.39;100.00;102103.56;5133357;27;20047;-60
2023/02/20 04:57:55;;;;;;;48.95;27.75;;;;;;;5.37;100.00;102100.13;5133316;27;20043;-61
2023/02/20 05:00:24;;;;;;;49.83;29.00;;;;;;;5.37;100.00;102102.72;5133083;27;20043;-61
2023/02/20 05:02:52;;;;;;;51.88;28.13;;;;;;;5.37;100.00;102103.63;5135826;27;20100;-61
2023/02/20 05:05:22;;;;;;;44.85;26.02;;;;;;;5.42;100.00;102104.34;5135923;27;20397;-60
2023/02/20 05:07:55;;;;;;;50.33;27.80;;;;;;;5.41;100.00;102086.13;5135066;27;20047;-61
2023/02/20 05:10:24;;;;;;;46.45;26.25;;;;;;;5.52;100.00;102091.09;5133352;27;20047;-61
2023/02/20 05:12:55;;;;;;;47.45;25.85;;;;;;;5.57;100.00;102097.06;5134941;27;20068;-61
2023/02/20 05:15:23;;;;;;;45.70;26.90;;;;;;;5.53;100.00;102098.88;5133707;27;20088;-61
2023/02/20 05:17:52;;;;;;;48.25;25.25;;;;;;;5.56;100.00;102091.00;5133638;27;20205;-61
2023/02/20 05:22:17;;;;;;;49.90;26.05;;;;;;;5.56;100.00;102091.00;5135641;27;20048;-61
2023/02/20 05:23:08;;;;;;;42.33;23.98;;;;;;;5.63;100.00;102091.69;5135975;27;20529;-61
2023/02/20 05:25:36;;;;;;;41.55;24.48;;;;;;;5.65;100.00;102095.13;5132136;27;20046;-61
2023/02/20 05:28:05;;;;;;;45.30;23.48;;;;;;;5.65;100.00;102094.28;5133511;27;20474;-61
2023/02/20 05:30:34;;;;;;;38.83;22.42;;;;;;;5.71;100.00;102099.31;5131195;27;20130;-61
2023/02/20 05:33:02;;;;;;;43.63;22.98;;;;;;;5.67;100.00;102101.16;5133042;27;20542;-61
2023/02/20 05:35:30;;;;;;;44.92;23.92;;;;;;;5.67;100.00;102100.28;5133095;27;20047;-61
2023/02/20 05:37:58;;;;;;;42.67;21.58;;;;;;;5.75;100.00;102098.34;5132655;27;20497;-61
2023/02/20 05:40:26;;;;;;;39.53;21.10;;;;;;;5.75;100.00;102091.41;5132949;27;20436;-61
2023/02/20 05:42:54;;;;;;;43.38;22.77;;;;;;;5.81;100.00;102085.16;5132914;27;20039;-61
2023/02/20 05:45:24;;;;;;;42.85;23.05;;;;;;;5.77;100.00;102083.53;5135185;27;20041;-61
2023/02/20 05:47:52;;;;;;;38.15;20.42;;;;;;;5.78;100.00;102090.47;5134088;27;20112;-61
2023/02/20 05:50:20;;;;;;;35.60;20.63;;;;;;;5.79;100.00;102079.09;5132796;27;20402;-61
2023/02/20 05:52:48;;;;;;;35.17;20.42;;;;;;;5.82;100.00;102070.34;5131977;27;20043;-61
2023/02/20 05:55:16;;;;;;;44.35;21.38;;;;;;;5.85;100.00;102070.25;5134290;27;20051;-61
2023/02/20 05:57:44;;;;;;;37.15;20.15;;;;;;;5.85;100.00;102071.13;5134005;27;20118;-61
2023/02/20 06:00:13;;;;;;;35.08;18.27;;;;;;;5.87;100.00;102064.09;5132671;27;20313;-61
2023/02/20 06:02:43;;;;;;;35.88;19.58;;;;;;;5.84;100.00;102065.94;5131453;27;20049;-61
2023/02/20 06:05:11;;;;;;;36.30;18.73;;;;;;;5.84;100.00;102069.41;5132381;27;20047;-61
2023/02/20 06:07:39;;;;;;;41.55;19.08;;;;;;;5.91;100.00;102060.50;5131723;27;20437;-61
2023/02/20 06:10:07;;;;;;;34.45;17.60;;;;;;;5.97;100.00;102074.31;5132168;27;20373;-61
2023/02/20 06:12:35;;;;;;;39.83;18.48;;;;;;;5.97;100.00;102074.31;5134644;27;20039;-61
2023/02/20 06:15:04;;;;;;;38.90;19.05;;;;;;;5.99;100.00;102083.00;5134097;27;20129;-61
2023/02/20 06:17:32;;;;;;;34.28;18.38;;;;;;;6.02;100.00;102078.53;5131704;27;20053;-61
2023/02/20 06:20:02;;;;;;;33.92;17.60;;;;;;;6.01;100.00;102083.81;5131303;27;20043;-61
2023/02/20 06:22:30;;;;;;;34.85;18.48;;;;;;;5.98;100.00;102084.75;5131418;27;20055;-61
2023/02/20 06:24:58;;;;;;;45.80;18.52;;;;;;;6.07;100.00;102091.50;5132438;27;20043;-61
2023/02/20 06:27:26;;;;;;;34.80;17.88;;;;;;;6.04;100.00;102086.31;5132584;27;20118;-61
2023/02/20 06:29:54;;;;;;;36.00;17.55;;;;;;;6.03;100.00;102084.63;5131693;27;20664;-61
2023/02/20 06:32:22;;;;;;;43.78;19.02;;;;;;;6.04;100.00;102075.88;5133606;27;20066;-61
2023/02/20 06:34:51;;;;;;;39.35;19.48;;;;;;;6.08;100.00;102082.75;5133604;27;20039;-61
2023/02/20 06:37:20;;;;;;;37.33;17.95;;;;;;;6.07;100.00;102081.88;5131051;27;20092;-61
2023/02/20 06:39:48;;;;;;;41.00;18.20;;;;;;;6.12;100.00;102078.31;5130936;27;20462;-61
2023/02/20 06:42:16;;;;;;;33.88;19.08;;;;;;;6.14;100.00;102079.97;5132373;27;20040;-61
2023/02/20 06:44:45;;;;;;;37.88;19.38;;;;;;;6.24;100.00;102073.63;5133919;27;20043;-61
2023/02/20 06:47:13;;;;;;;33.83;18.92;;;;;;;6.18;100.00;102079.00;5133863;27;20527;-61
2023/02/20 06:49:42;;;;;;;34.80;18.35;;;;;;;6.21;100.00;102085.91;5132654;27;20464;-61
2023/02/20 06:52:12;;;;;;;36.00;18.55;;;;;;;6.20;100.00;102086.78;5133913;27;20479;-61
2023/02/20 06:54:41;;;;;;;35.50;17.65;;;;;;;6.20;100.00;102092.00;5133919;27;20051;-61
2023/02/20 06:57:10;;;;;;;36.83;16.70;;;;;;;6.25;100.00;102090.97;5131057;27;20359;-61
2023/02/20 06:59:40;;;;;;;35.08;17.63;;;;;;;6.23;100.00;102086.69;5130463;27;20409;-61
2023/02/20 07:02:11;;;;;;;29.55;15.68;;;;;;;6.24;100.00;102077.97;5130913;27;20568;-61
2023/02/20 07:04:41;;;;;;;31.20;16.48;;;;;;;6.32;100.00;102078.63;5132621;27;20047;-61
2023/02/20 07:07:09;;;;;;;30.90;16.42;;;;;;;6.24;100.00;102078.84;5133726;27;20051;-62
2023/02/20 07:09:40;;;;;;;31.15;15.75;;;;;;;6.30;100.00;102080.44;5131062;27;20096;-61
2023/02/20 07:12:12;;;;;;;35.72;17.48;;;;;;;6.29;100.00;102078.72;5129797;27;20039;-61
2023/02/20 07:14:40;;;;;;;34.92;17.88;;;;;;;6.33;100.00;102089.94;5133466;28;20047;-61
2023/02/20 07:17:11;;;;;;;35.83;17.42;;;;;;;6.28;100.00;102087.44;5130885;28;20047;-61
2023/02/20 07:19:40;;;;;;;35.80;17.42;;;;;;;6.33;100.00;102082.09;5130307;27;20043;-61
2023/02/20 07:22:08;;;;;;;33.45;17.73;;;;;;;6.39;100.00;102090.63;5130142;28;20439;-61
2023/02/20 07:24:36;;;;;;;35.28;17.25;;;;;;;6.34;100.00;102089.91;5132322;28;20043;-61
2023/02/20 07:27:05;;;;;;;36.42;17.63;;;;;;;6.35;100.00;102091.59;5129162;27;20051;-61
2023/02/20 07:29:35;;;;;;;36.88;18.35;;;;;;;6.39;100.00;102094.97;5129995;27;20047;-61
2023/02/20 07:32:03;;;;;;;38.38;17.63;;;;;;;6.42;100.00;102097.50;5129738;27;20074;-61
2023/02/20 07:34:32;;;;;;;35.60;17.60;;;;;;;6.45;100.00;102094.81;5129420;27;20129;-62
2023/02/20 07:37:02;;;;;;;36.65;18.40;;;;;;;6.47;100.00;102105.22;5132773;27;20055;-62
2023/02/20 07:39:30;;;;;;;33.85;16.92;;;;;;;6.48;100.00;102092.13;5129171;28;20048;-62
2023/02/20 07:41:59;;;;;;;40.67;19.83;;;;;;;6.46;100.00;102083.44;5130046;27;20393;-62
2023/02/20 07:44:27;;;;;;;34.20;19.50;;;;;;;6.48;100.00;102080.81;5128873;28;20058;-62
2023/02/20 07:46:56;;;;;;;38.90;19.75;;;;;;;6.48;100.00;102080.81;5129939;28;20081;-61
2023/02/20 07:49:24;;;;;;;37.58;18.55;;;;;;;6.50;100.00;102092.91;5133197;28;20070;-62
2023/02/20 07:51:53;;;;;;;39.75;18.52;;;;;;;6.58;100.00;102095.31;5133100;27;20066;-62
2023/02/20 07:54:21;;;;;;;37.33;18.27;;;;;;;6.52;100.00;102092.91;5133137;27;20091;-62
2023/02/20 07:56:49;;;;;;;40.45;18.67;;;;;;;6.54;100.00;102099.78;5133162;27;20043;-62
2023/02/20 07:59:17;;;;;;;38.42;18.85;;;;;;;6.61;100.00;102103.06;5133512;27;20076;-62
2023/02/20 08:01:45;;;;;;;37.40;17.25;;;;;;;6.56;100.00;102105.81;5131620;27;20059;-62
2023/02/20 08:04:15;;;;;;;36.85;17.33;;;;;;;6.58;100.00;102103.16;5133600;27;20058;-62
2023/02/20 08:06:43;;;;;;;31.73;18.25;;;;;;;6.60;100.00;102097.00;5134127;27;20405;-62
2023/02/20 08:09:11;;;;;;;35.90;18.90;;;;;;;6.64;100.00;102099.53;5135389;27;20114;-62
2023/02/20 08:11:39;;;;;;;35.53;19.80;;;;;;;6.60;100.00;102102.22;5132876;27;20035;-62
2023/02/20 08:14:08;;;;;;;41.90;19.98;;;;;;;6.63;100.00;102101.28;5133333;27;20049;-62
2023/02/20 08:16:36;;;;;;;39.40;20.10;;;;;;;6.60;100.00;102102.22;5135897;27;20096;-62
2023/02/20 08:19:04;;;;;;;35.60;18.67;;;;;;;6.63;100.00;102097.81;5133752;27;20047;-62
2023/02/20 08:21:34;;;;;;;35.80;18.60;;;;;;;6.66;100.00;102095.97;5133912;27;20501;-62
2023/02/20 08:24:02;;;;;;;37.35;18.83;;;;;;;6.68;100.00;102104.63;5136522;27;20047;-62
2023/02/20 08:26:30;;;;;;;38.80;19.10;;;;;;;6.68;100.00;102103.75;5136491;27;20092;-62
2023/02/20 08:28:58;;;;;;;37.83;19.08;;;;;;;6.70;100.00;102092.34;5136667;27;20039;-62
2023/02/20 08:31:27;;;;;;;40.85;20.98;;;;;;;6.75;100.00;102107.94;5132315;27;20528;-62
2023/02/20 08:34:02;;;;;;;32.55;18.20;;;;;;;6.73;100.00;102109.72;5132759;27;20084;-62
2023/02/20 08:36:31;;;;;;;37.67;19.23;;;;;;;6.77;100.00;102111.34;5132739;27;20047;-62
2023/02/20 08:39:02;;;;;;;31.70;18.75;;;;;;;6.81;100.00;102099.88;5133678;27;20134;-62
2023/02/20 08:41:30;;;;;;;33.90;18.25;;;;;;;6.82;100.00;102101.59;5131296;27;20090;-62
2023/02/20 08:43:58;;;;;;;34.67;17.40;;;;;;;6.80;100.00;102100.78;5132381;27;20047;-62
2023/02/20 08:46:26;;;;;;;37.80;17.58;;;;;;;6.89;100.00;102092.66;5131784;27;20051;-62
2023/02/20 08:48:55;;;;;;;35.95;20.00;;;;;;;6.86;100.00;102095.38;5132853;27;20082;-62
2023/02/20 08:51:24;;;;;;;38.35;18.45;;;;;;;6.84;100.00;102091.94;5132511;27;20039;-62
2023/02/20 08:53:52;;;;;;;32.28;18.02;;;;;;;6.89;100.00;102092.66;5135100;27;20035;-62
2023/02/20 08:56:22;;;;;;;31.92;18.20;;;;;;;6.94;100.00;102096.00;5130892;27;20039;-62
2023/02/20 08:58:50;;;;;;;33.50;17.80;;;;;;;6.97;100.00;102075.88;5132204;27;20494;-62
2023/02/20 09:01:18;;;;;;;35.38;18.23;;;;;;;6.95;100.00;102086.41;5133497;27;20058;-62
2023/02/20 09:03:48;;;;;;;32.55;17.63;;;;;;;7.04;100.00;102087.91;5130650;27;20528;-62
2023/02/20 09:06:16;;;;;;;36.03;18.70;;;;;;;7.01;100.00;102086.22;5131591;27;20035;-62
2023/02/20 09:08:44;;;;;;;37.00;17.25;;;;;;;7.00;100.00;102074.03;5134785;27;20424;-62
2023/02/20 09:11:12;;;;;;;38.08;18.88;;;;;;;7.02;100.00;102079.22;5135784;27;20374;-62
2023/02/20 09:13:46;;;;;;;33.65;16.42;;;;;;;7.08;100.00;102082.50;5134222;27;20046;-62
2023/02/20 09:16:16;;;;;;;35.33;17.77;;;;;;;7.08;100.00;102071.19;5131344;27;20096;-62
2023/02/20 09:18:45;;;;;;;31.48;16.85;;;;;;;7.14;100.00;102080.63;5132492;27;20051;-62
2023/02/20 09:21:15;;;;;;;30.02;16.38;;;;;;;7.20;100.00;102070.81;5134798;27;20040;-62
2023/02/20 09:23:44;;;;;;;30.50;15.93;;;;;;;7.22;100.00;102071.63;5135025;27;20550;-62
2023/02/20 09:26:15;;;;;;;31.48;16.23;;;;;;;7.21;100.00;102053.34;5135444;27;20067;-62
2023/02/20 09:28:43;;;;;;;31.73;16.25;;;;;;;7.27;100.00;102051.41;5133943;27;20062;-62
2023/02/20 09:31:14;;;;;;;32.30;16.15;;;;;;;7.28;100.00;102047.88;5135236;27;20047;-62
2023/02/20 09:33:44;;;;;;;34.13;16.27;;;;;;;7.33;100.00;102033.78;5134914;27;20498;-62
2023/02/20 09:36:18;;;;;;;28.38;14.85;;;;;;;7.42;100.00;102043.97;5131089;27;20051;-62
2023/02/20 09:38:46;;;;;;;29.33;15.68;;;;;;;7.43;100.00;102035.19;5131896;27;20170;-62
2023/02/20 09:41:43;;;;;;;26.27;14.48;;;;;;;7.40;100.00;102033.56;5131951;27;20043;-62
2023/02/20 09:44:18;;;;;;;30.25;15.25;;;;;;;7.41;100.00;102042.25;5130404;27;20488;-62
2023/02/20 09:46:49;;;;;;;29.75;15.60;;;;;;;7.45;100.00;102041.25;5134807;27;20051;-62
2023/02/20 09:49:25;;;;;;;27.20;14.68;;;;;;;7.48;100.00;102048.13;5133196;27;20051;-62
2023/02/20 09:51:59;;;;;;;28.25;14.57;;;;;;;7.54;100.00;102055.78;5131212;27;20366;-63
2023/02/20 09:54:32;;;;;;;32.30;14.18;;;;;;;7.54;100.00;102048.78;5127953;27;20046;-62
2023/02/20 09:57:03;;;;;;;27.23;14.15;;;;;;;7.60;100.00;102061.66;5130519;27;20047;-62
2023/02/20 09:59:35;;;;;;;32.10;14.15;;;;;;;7.58;100.00;102055.63;5133166;27;20051;-62
2023/02/20 10:02:16;;;;;;;31.20;15.25;;;;;;;7.50;100.00;102052.41;5130806;27;20051;-62
2023/02/20 10:04:47;;;;;;;25.85;13.60;;;;;;;7.53;100.00;102049.69;5130848;27;20047;-63
2023/02/20 10:07:30;;;;;;;25.50;13.88;;;;;;;7.50;100.00;102043.69;5129967;27;20440;-63
2023/02/20 10:10:00;;;;;;;29.63;14.27;;;;;;;7.49;100.00;102045.47;5130374;27;20043;-63
2023/02/20 10:12:32;;;;;;;27.38;13.82;;;;;;;7.50;100.00;102052.41;5129273;27;20042;-62
2023/02/20 10:15:13;;;;;;;25.70;14.05;;;;;;;7.59;100.00;102046.88;5132867;27;20035;-62
2023/02/20 10:17:50;;;;;;;24.55;13.02;;;;;;;7.59;100.00;102065.22;5133912;27;20047;-62
2023/02/20 10:20:26;;;;;;;34.05;14.38;;;;;;;7.52;100.00;102058.44;5128617;27;20539;-62
2023/02/20 10:23:01;;;;;;;26.05;13.73;;;;;;;7.56;100.00;102067.06;5130436;27;20039;-62
2023/02/20 10:25:33;;;;;;;28.02;14.48;;;;;;;7.56;100.00;102060.06;5128781;27;20070;-62
2023/02/20 10:28:06;;;;;;;26.25;13.23;;;;;;;7.55;100.00;102071.47;5129565;27;20046;-62
2023/02/20 10:30:39;;;;;;;27.70;14.23;;;;;;;7.56;100.00;102067.06;5130842;27;20085;-62
2023/02/20 10:33:21;;;;;;;27.27;13.57;;;;;;;7.55;100.00;102066.22;5133752;27;20053;-63
2023/02/20 10:35:56;;;;;;;29.95;14.57;;;;;;;7.60;100.00;102063.44;5134035;27;20501;-63
2023/02/20 10:38:34;;;;;;;26.55;14.77;;;;;;;7.64;100.00;102066.81;5132436;27;20051;-63
2023/02/20 10:41:10;;;;;;;28.73;15.32;;;;;;;7.65;100.00;102077.25;5134146;27;20134;-63
2023/02/20 10:43:45;;;;;;;28.85;15.02;;;;;;;7.60;100.00;102077.38;5134039;27;20093;-63
2023/02/20 10:46:20;;;;;;;27.23;14.30;;;;;;;7.61;100.00;102081.72;5133838;27;20096;-63
2023/02/20 10:48:51;;;;;;;26.65;15.02;;;;;;;7.64;100.00;102082.53;5128789;27;20126;-63
2023/02/20 10:51:26;;;;;;;24.40;15.27;;;;;;;7.67;100.00;102092.91;5130034;27;20039;-52
2023/02/20 10:54:01;;;;;;;27.85;16.00;;;;;;;7.64;100.00;102096.47;5131869;27;20043;-53
2023/02/20 10:56:38;;;;;;;32.67;15.35;;;;;;;7.68;100.00;102086.75;5129697;27;20055;-52
2023/02/20 10:59:10;;;;;;;31.83;17.35;;;;;;;7.66;100.00;102092.03;5129689;27;20051;-52
2023/02/20 11:01:40;;;;;;;28.20;16.33;;;;;;;7.68;100.00;102092.00;5133502;27;20046;-52
2023/02/20 11:04:14;;;;;;;28.27;14.98;;;;;;;7.72;100.00;102067.41;5133459;27;20122;-51
2023/02/20 11:06:45;;;;;;;30.42;15.38;;;;;;;7.74;100.00;102069.09;5133478;27;20047;-49
2023/02/20 11:09:13;;;;;;;27.55;14.50;;;;;;;7.70;100.00;102101.53;5133668;27;20063;-53
2023/02/20 11:11:43;;;;;;;28.83;14.02;;;;;;;7.69;100.00;102088.44;5133616;27;20071;-51
2023/02/20 11:14:14;;;;;;;27.20;14.65;;;;;;;7.75;100.00;102057.69;5132732;28;20493;-53
2023/02/20 11:16:49;;;;;;;26.90;12.70;;;;;;;7.74;100.00;102039.41;5129311;27;20525;-52
2023/02/20 11:19:26;;;;;;;19.13;11.70;;;;;;;7.76;100.00;102051.53;5129782;27;20074;-53
2023/02/20 11:21:57;;;;;;;26.25;11.25;;;;;;;7.78;100.00;102064.56;5132469;27;20046;-52
2023/02/20 11:24:31;;;;;;;19.70;11.02;;;;;;;7.77;100.00;102052.38;5128575;27;20367;-52
2023/02/20 11:27:06;;;;;;;20.02;9.10;;;;;;;7.78;100.00;102023.53;5129471;27;20054;-53
2023/02/20 11:29:43;;;;;;;20.55;8.60;;;;;;;7.84;100.00;102026.84;5133520;27;20051;-52
2023/02/20 11:32:29;;;;;;;17.80;8.20;;;;;;;7.87;100.00;102019.75;5133219;27;20039;-52
2023/02/20 11:35:32;;;;;;;26.02;9.70;;;;;;;7.85;100.00;102011.06;5133582;27;20057;-52
2023/02/20 11:38:34;;;;;;;24.07;9.27;;;;;;;7.90;100.00;102016.16;5135173;27;20447;-53
2023/02/20 11:41:26;;;;;;;21.15;10.18;;;;;;;7.90;100.00;102017.00;5132633;27;20561;-53